Time;durP1;ratioP1;P1;durP2;ratioP2;P2;SDS_P1;SDS_P2;PMS_P1;PMS_P2;Temp;Humidity;BMP_temperature;BMP_pressure;BME280_temperature;BME280_humidity;BME280_pressure;Samples;Min_cycle;Max_cycle;Signal;HPM_P1;HPM_P2
2023/10/29 00:08:36;;;;;;;7.43;2.60;;;;;;;;;;20921405;28;20214;-71
2023/10/29 00:18:38;;;;;;;7.43;3.63;;;;;;;;;;20919982;28;20246;-70
2023/10/29 00:28:41;;;;;;;5.10;3.10;;;;;;;;;;20919362;28;20294;-70
2023/10/29 00:38:43;;;;;;;8.17;3.13;;;;;;;;;;20919076;28;20240;-70
2023/10/29 00:48:46;;;;;;;7.13;2.90;;;;;;;;;;20918075;28;20210;-69
2023/10/29 00:58:48;;;;;;;5.13;3.07;;;;;;;;;;20916995;28;20240;-69
2023/10/29 01:08:50;;;;;;;8.27;2.70;;;;;;;;;;20915917;28;20204;-69
2023/10/29 01:18:52;;;;;;;5.17;2.47;;;;;;;;;;20915130;28;20675;-69
2023/10/29 01:28:54;;;;;;;4.77;2.37;;;;;;;;;;20914784;28;20204;-69
2023/10/29 01:38:57;;;;;;;4.57;2.30;;;;;;;;;;20914426;28;20240;-70
2023/10/29 01:48:59;;;;;;;4.43;2.90;;;;;;;;;;20913343;28;20247;-71
2023/10/29 01:59:03;;;;;;;8.93;2.50;;;;;;;;;;20912799;28;20234;-72
2023/10/29 02:09:08;;;;;;;8.37;2.53;;;;;;;;;;20912604;28;20207;-71
2023/10/29 02:19:10;;;;;;;3.60;2.37;;;;;;;;;;20911593;28;20246;-71
2023/10/29 02:29:12;;;;;;;4.87;2.60;;;;;;;;;;20912041;28;20206;-71
2023/10/29 02:39:15;;;;;;;5.77;2.73;;;;;;;;;;20911730;28;20590;-70
2023/10/29 02:49:17;;;;;;;5.97;2.33;;;;;;;;;;20910663;28;20237;-69
2023/10/29 02:59:21;;;;;;;4.70;2.40;;;;;;;;;;20910106;28;20278;-72
2023/10/29 03:09:23;;;;;;;2.63;1.60;;;;;;;;;;20910044;28;20301;-72
2023/10/29 03:19:25;;;;;;;5.27;1.60;;;;;;;;;;20908159;28;20254;-69
2023/10/29 03:29:29;;;;;;;3.67;1.60;;;;;;;;;;20917918;28;20215;-70
2023/10/29 03:39:32;;;;;;;4.90;1.80;;;;;;;;;;20922606;28;20323;-71
2023/10/29 03:49:34;;;;;;;3.20;1.40;;;;;;;;;;20922695;28;20220;-71
2023/10/29 03:59:36;;;;;;;3.73;1.73;;;;;;;;;;20921743;28;20235;-69
2023/10/29 04:09:38;;;;;;;2.23;1.60;;;;;;;;;;20921640;28;20777;-69
2023/10/29 04:19:40;;;;;;;3.50;1.60;;;;;;;;;;20919466;28;20244;-68
2023/10/29 04:29:42;;;;;;;2.40;1.60;;;;;;;;;;20919647;28;20200;-68
2023/10/29 04:39:45;;;;;;;2.13;1.60;;;;;;;;;;20918902;28;20288;-70
2023/10/29 04:49:48;;;;;;;8.07;2.00;;;;;;;;;;20918434;28;20357;-70
2023/10/29 04:59:52;;;;;;;3.23;1.50;;;;;;;;;;20917054;28;20338;-70
2023/10/29 05:09:54;;;;;;;3.17;1.87;;;;;;;;;;20916478;28;20261;-70
2023/10/29 05:19:57;;;;;;;4.17;1.50;;;;;;;;;;20915786;28;20243;-70
2023/10/29 05:29:59;;;;;;;3.33;1.73;;;;;;;;;;20914620;28;20745;-71
2023/10/29 05:40:03;;;;;;;7.90;1.93;;;;;;;;;;20914610;28;20642;-65
2023/10/29 05:50:06;;;;;;;4.50;2.10;;;;;;;;;;20913480;28;20206;-71
2023/10/29 06:00:08;;;;;;;2.37;1.90;;;;;;;;;;20936405;28;20665;-69
2023/10/29 06:10:13;;;;;;;3.57;2.20;;;;;;;;;;20972444;28;20571;-67
2023/10/29 06:20:20;;;;;;;6.20;2.50;;;;;;;;;;20922724;28;20296;-68
2023/10/29 06:30:22;;;;;;;5.00;1.73;;;;;;;;;;20924841;28;20225;-68
2023/10/29 06:40:26;;;;;;;5.03;3.00;;;;;;;;;;20993824;28;20235;-71
2023/10/29 06:50:28;;;;;;;6.43;2.37;;;;;;;;;;20993925;28;20292;-82
2023/10/29 07:00:31;;;;;;;3.90;2.20;;;;;;;;;;20996532;28;20703;-71
2023/10/29 07:10:33;;;;;;;3.23;2.10;;;;;;;;;;20944063;28;20210;-69
2023/10/29 07:20:35;;;;;;;9.10;2.10;;;;;;;;;;20924880;28;20238;-70
2023/10/29 07:30:38;;;;;;;5.80;2.50;;;;;;;;;;20924377;28;20211;-68
2023/10/29 07:40:40;;;;;;;4.50;2.20;;;;;;;;;;20919039;28;20230;-68
2023/10/29 07:50:49;;;;;;;4.03;2.27;;;;;;;;;;20870380;28;20202;-67
2023/10/29 08:00:52;;;;;;;4.33;2.37;;;;;;;;;;20839381;28;20282;-73
2023/10/29 08:10:54;;;;;;;55.63;3.07;;;;;;;;;;20971029;28;20673;-66
2023/10/29 08:20:56;;;;;;;4.63;2.13;;;;;;;;;;21003207;28;20251;-68
2023/10/29 08:30:58;;;;;;;8.40;2.80;;;;;;;;;;21002121;28;20600;-68
2023/10/29 08:41:00;;;;;;;6.73;3.10;;;;;;;;;;21001373;28;20231;-68
2023/10/29 08:51:03;;;;;;;7.50;2.53;;;;;;;;;;21000827;28;20206;-68
2023/10/29 09:01:12;;;;;;;6.17;3.07;;;;;;;;;;20998724;28;20705;-70
2023/10/29 09:11:15;;;;;;;2.53;2.20;;;;;;;;;;20928639;28;20200;-66
2023/10/29 09:21:17;;;;;;;4.40;2.20;;;;;;;;;;20915305;28;20240;-68
2023/10/29 09:31:19;;;;;;;3.97;1.97;;;;;;;;;;20914441;28;20203;-68
2023/10/29 09:41:21;;;;;;;3.27;1.60;;;;;;;;;;20914866;28;20634;-72
2023/10/29 09:51:23;;;;;;;2.87;1.67;;;;;;;;;;20913285;28;20216;-71
2023/10/29 10:01:26;;;;;;;2.33;1.53;;;;;;;;;;20912322;28;20238;-70
2023/10/29 10:11:28;;;;;;;2.47;1.77;;;;;;;;;;20880841;28;20302;-69
2023/10/29 10:21:43;;;;;;;2.70;1.87;;;;;;;;;;20870619;28;20251;-69
2023/10/29 10:31:46;;;;;;;5.87;1.80;;;;;;;;;;20855750;28;20212;-70
2023/10/29 10:41:49;;;;;;;2.07;1.50;;;;;;;;;;20844040;28;20240;-74
2023/10/29 10:51:54;;;;;;;3.30;1.70;;;;;;;;;;20846175;28;20572;-65
2023/10/29 11:01:57;;;;;;;3.47;1.90;;;;;;;;;;20843144;28;20659;-68
2023/10/29 11:11:59;;;;;;;2.73;1.80;;;;;;;;;;20995155;28;20200;-66
2023/10/29 11:22:29;;;;;;;2.37;1.70;;;;;;;;;;21007735;28;20247;-65
2023/10/29 11:32:31;;;;;;;2.10;1.50;;;;;;;;;;21006951;28;20262;-65
2023/10/29 11:42:33;;;;;;;2.07;1.50;;;;;;;;;;21005876;28;20235;-66
2023/10/29 11:52:42;;;;;;;2.47;1.73;;;;;;;;;;21004439;28;20613;-66
2023/10/29 12:02:45;;;;;;;3.80;1.97;;;;;;;;;;21004337;28;20322;-68
2023/10/29 12:12:52;;;;;;;4.30;2.43;;;;;;;;;;21003580;28;20205;-69
2023/10/29 12:22:58;;;;;;;3.57;2.33;;;;;;;;;;21003040;28;20330;-67
2023/10/29 12:33:22;;;;;;;3.83;2.50;;;;;;;;;;21002325;28;20241;-67
2023/10/29 12:43:35;;;;;;;4.80;2.00;;;;;;;;;;21001328;28;20240;-71
2023/10/29 12:53:38;;;;;;;2.57;1.80;;;;;;;;;;21000605;28;20211;-68
2023/10/29 13:03:40;;;;;;;3.60;1.93;;;;;;;;;;20999584;28;20227;-67
2023/10/29 13:13:42;;;;;;;3.93;1.70;;;;;;;;;;21002074;28;20737;-68
2023/10/29 13:23:50;;;;;;;3.47;2.00;;;;;;;;;;20997950;28;20241;-68
2023/10/29 13:33:52;;;;;;;3.33;1.90;;;;;;;;;;20997865;28;20662;-68
2023/10/29 13:43:55;;;;;;;3.67;1.80;;;;;;;;;;20996611;28;20249;-69
2023/10/29 13:53:57;;;;;;;2.47;1.80;;;;;;;;;;20995826;28;20260;-71
2023/10/29 14:04:02;;;;;;;5.13;2.50;;;;;;;;;;20994667;28;20246;-68
2023/10/29 14:14:04;;;;;;;3.27;2.17;;;;;;;;;;20994701;28;20290;-73
2023/10/29 14:24:07;;;;;;;5.47;2.67;;;;;;;;;;20992887;28;20246;-70
2023/10/29 14:34:11;;;;;;;3.27;2.10;;;;;;;;;;20994482;28;20224;-68
2023/10/29 14:44:14;;;;;;;4.07;2.23;;;;;;;;;;20993546;28;20241;-70
2023/10/29 14:54:17;;;;;;;5.67;2.07;;;;;;;;;;20993262;28;20282;-76
2023/10/29 15:04:19;;;;;;;4.90;2.80;;;;;;;;;;20992718;28;20229;-69
2023/10/29 15:14:21;;;;;;;4.67;2.50;;;;;;;;;;20991707;28;20200;-67
2023/10/29 15:24:24;;;;;;;6.17;3.67;;;;;;;;;;20999094;28;20246;-70
2023/10/29 15:34:26;;;;;;;6.17;3.80;;;;;;;;;;21006654;28;20220;-69
2023/10/29 15:44:28;;;;;;;9.03;3.53;;;;;;;;;;21005679;28;20317;-69
2023/10/29 15:54:31;;;;;;;13.87;8.60;;;;;;;;;;21003273;28;20216;-70
2023/10/29 16:04:34;;;;;;;9.50;6.03;;;;;;;;;;21004842;28;20318;-70
2023/10/29 16:14:36;;;;;;;8.03;5.33;;;;;;;;;;21003921;28;20260;-70
2023/10/29 16:24:38;;;;;;;10.57;7.17;;;;;;;;;;21002946;28;20244;-70
2023/10/29 16:34:40;;;;;;;11.03;3.90;;;;;;;;;;21002998;28;20676;-70
2023/10/29 16:44:42;;;;;;;5.27;2.27;;;;;;;;;;21002249;28;20254;-69
2023/10/29 16:54:45;;;;;;;4.30;2.50;;;;;;;;;;21000393;28;20636;-70
2023/10/29 17:04:47;;;;;;;6.50;2.03;;;;;;;;;;20985492;28;20239;-70
2023/10/29 17:14:49;;;;;;;3.63;2.10;;;;;;;;;;20965635;28;20282;-69
2023/10/29 17:24:51;;;;;;;6.33;3.87;;;;;;;;;;20936327;28;20571;-68
2023/10/29 17:34:54;;;;;;;3.90;1.80;;;;;;;;;;20918890;28;20206;-67
2023/10/29 17:44:56;;;;;;;2.37;1.40;;;;;;;;;;20996028;28;20242;-66
2023/10/29 17:54:58;;;;;;;1.63;1.23;;;;;;;;;;20996248;28;20223;-67
2023/10/29 18:05:01;;;;;;;1.30;1.20;;;;;;;;;;20995883;28;20235;-67
2023/10/29 18:15:03;;;;;;;2.67;1.37;;;;;;;;;;20995137;28;20207;-67
2023/10/29 18:25:06;;;;;;;1.97;1.60;;;;;;;;;;20994372;28;20316;-68
2023/10/29 18:35:08;;;;;;;2.03;1.50;;;;;;;;;;20994636;28;20210;-68
2023/10/29 18:45:10;;;;;;;2.00;1.20;;;;;;;;;;20945803;28;20458;-66
2023/10/29 18:55:12;;;;;;;1.90;1.13;;;;;;;;;;20984964;28;20219;-67
2023/10/29 19:05:16;;;;;;;2.80;1.20;;;;;;;;;;20927153;28;20235;-69
2023/10/29 19:15:19;;;;;;;1.70;1.07;;;;;;;;;;20957212;28;20195;-67
2023/10/29 19:25:21;;;;;;;1.47;1.00;;;;;;;;;;21005599;28;20270;-67
2023/10/29 19:35:23;;;;;;;1.13;0.90;;;;;;;;;;21005046;28;20548;-68
2023/10/29 19:45:25;;;;;;;2.17;0.70;;;;;;;;;;21003923;28;20660;-70
2023/10/29 19:55:28;;;;;;;1.07;0.87;;;;;;;;;;21003483;28;20213;-68
2023/10/29 20:05:35;;;;;;;4.97;0.90;;;;;;;;;;21002363;28;20242;-69
2023/10/29 20:15:37;;;;;;;1.63;0.80;;;;;;;;;;21002131;28;20278;-66
2023/10/29 20:29:21;;;;;;;1.20;0.83;;;;;;;;;;21065230;28;20578;-65
2023/10/29 20:39:23;;;;;;;1.80;0.90;;;;;;;;;;21064167;28;20209;-67
2023/10/29 20:49:26;;;;;;;1.10;1.00;;;;;;;;;;21097208;28;20202;-67
2023/10/29 20:59:28;;;;;;;0.80;0.80;;;;;;;;;;21147109;28;20300;-68
2023/10/29 21:09:31;;;;;;;0.90;0.70;;;;;;;;;;21146486;28;20206;-67
2023/10/29 21:19:33;;;;;;;1.53;0.90;;;;;;;;;;21145532;28;20572;-67
2023/10/29 21:29:35;;;;;;;1.87;0.77;;;;;;;;;;21144833;28;20677;-68
2023/10/29 21:39:37;;;;;;;1.00;0.80;;;;;;;;;;21093421;28;20661;-67
2023/10/29 21:49:41;;;;;;;1.90;0.80;;;;;;;;;;21050511;28;20210;-67
2023/10/29 21:59:43;;;;;;;4.30;1.23;;;;;;;;;;21002162;28;20218;-68
2023/10/29 22:09:46;;;;;;;1.33;1.00;;;;;;;;;;21001418;28;20205;-67
2023/10/29 22:19:48;;;;;;;1.77;1.13;;;;;;;;;;20998708;28;20594;-66
2023/10/29 22:29:52;;;;;;;3.00;1.30;;;;;;;;;;21002231;28;20207;-65
2023/10/29 22:39:54;;;;;;;2.03;1.20;;;;;;;;;;21001451;28;20262;-67
2023/10/29 22:49:56;;;;;;;1.57;0.93;;;;;;;;;;21000143;28;20674;-66
2023/10/29 22:59:58;;;;;;;2.50;1.07;;;;;;;;;;20999594;28;20323;-66
2023/10/29 23:10:01;;;;;;;3.30;1.10;;;;;;;;;;20999043;28;20208;-66
2023/10/29 23:20:03;;;;;;;2.53;1.50;;;;;;;;;;20998416;28;20231;-66
2023/10/29 23:30:06;;;;;;;2.50;1.10;;;;;;;;;;20997524;28;20208;-67
2023/10/29 23:40:08;;;;;;;1.40;0.90;;;;;;;;;;20996651;28;20249;-65
2023/10/29 23:50:10;;;;;;;1.93;0.97;;;;;;;;;;20996420;28;20206;-66
